sensor_id;sensor_type;location;lat;lon;timestamp;P1;durP1;ratioP1;P2;durP2;ratioP2
46507;SDS011;32223;53.654;10.014;2023-04-25T00:02:25;7.28;;;3.65;;
46507;SDS011;32223;53.654;10.014;2023-04-25T00:04:51;9.38;;;3.38;;
46507;SDS011;32223;53.654;10.014;2023-04-25T00:07:16;10.10;;;4.15;;
46507;SDS011;32223;53.654;10.014;2023-04-25T00:09:42;11.07;;;3.70;;
46507;SDS011;32223;53.654;10.014;2023-04-25T00:12:10;13.75;;;4.13;;
46507;SDS011;32223;53.654;10.014;2023-04-25T00:14:35;9.90;;;3.35;;
46507;SDS011;32223;53.654;10.014;2023-04-25T00:17:01;11.98;;;3.95;;
46507;SDS011;32223;53.654;10.014;2023-04-25T00:19:27;14.43;;;3.40;;
46507;SDS011;32223;53.654;10.014;2023-04-25T00:21:54;11.73;;;4.05;;
46507;SDS011;32223;53.654;10.014;2023-04-25T00:24:20;11.85;;;3.10;;
46507;SDS011;32223;53.654;10.014;2023-04-25T00:26:46;8.77;;;3.40;;
46507;SDS011;32223;53.654;10.014;2023-04-25T00:29:11;15.15;;;2.63;;
46507;SDS011;32223;53.654;10.014;2023-04-25T00:31:37;11.50;;;3.90;;
46507;SDS011;32223;53.654;10.014;2023-04-25T00:34:02;12.82;;;3.55;;
46507;SDS011;32223;53.654;10.014;2023-04-25T00:36:28;10.98;;;4.20;;
46507;SDS011;32223;53.654;10.014;2023-04-25T00:38:54;8.50;;;3.17;;
46507;SDS011;32223;53.654;10.014;2023-04-25T00:41:20;10.73;;;3.08;;
46507;SDS011;32223;53.654;10.014;2023-04-25T00:43:45;12.93;;;3.10;;
46507;SDS011;32223;53.654;10.014;2023-04-25T00:46:12;11.77;;;4.35;;
46507;SDS011;32223;53.654;10.014;2023-04-25T00:48:38;16.40;;;4.53;;
46507;SDS011;32223;53.654;10.014;2023-04-25T00:51:03;11.73;;;2.92;;
46507;SDS011;32223;53.654;10.014;2023-04-25T00:53:29;11.80;;;3.63;;
46507;SDS011;32223;53.654;10.014;2023-04-25T00:55:57;14.45;;;3.25;;
46507;SDS011;32223;53.654;10.014;2023-04-25T00:58:23;13.85;;;3.17;;
46507;SDS011;32223;53.654;10.014;2023-04-25T01:00:50;12.45;;;3.00;;
46507;SDS011;32223;53.654;10.014;2023-04-25T01:03:17;16.23;;;3.88;;
46507;SDS011;32223;53.654;10.014;2023-04-25T01:05:44;14.52;;;4.30;;
46507;SDS011;32223;53.654;10.014;2023-04-25T01:08:11;13.68;;;4.07;;
46507;SDS011;32223;53.654;10.014;2023-04-25T01:10:38;10.68;;;3.80;;
46507;SDS011;32223;53.654;10.014;2023-04-25T01:13:03;14.00;;;3.20;;
46507;SDS011;32223;53.654;10.014;2023-04-25T01:15:29;18.80;;;3.83;;
46507;SDS011;32223;53.654;10.014;2023-04-25T01:17:55;19.65;;;5.05;;
46507;SDS011;32223;53.654;10.014;2023-04-25T01:20:21;21.83;;;3.78;;
46507;SDS011;32223;53.654;10.014;2023-04-25T01:22:48;11.02;;;2.70;;
46507;SDS011;32223;53.654;10.014;2023-04-25T01:25:14;25.95;;;3.33;;
46507;SDS011;32223;53.654;10.014;2023-04-25T01:27:40;19.30;;;6.35;;
46507;SDS011;32223;53.654;10.014;2023-04-25T01:30:06;25.92;;;4.35;;
46507;SDS011;32223;53.654;10.014;2023-04-25T01:32:32;16.73;;;3.03;;
46507;SDS011;32223;53.654;10.014;2023-04-25T01:35:04;15.75;;;4.10;;
46507;SDS011;32223;53.654;10.014;2023-04-25T01:40:03;16.63;;;3.20;;
46507;SDS011;32223;53.654;10.014;2023-04-25T01:42:30;21.88;;;5.43;;
46507;SDS011;32223;53.654;10.014;2023-04-25T01:44:57;22.73;;;4.13;;
46507;SDS011;32223;53.654;10.014;2023-04-25T01:47:23;13.98;;;3.03;;
46507;SDS011;32223;53.654;10.014;2023-04-25T01:49:48;18.77;;;4.05;;
46507;SDS011;32223;53.654;10.014;2023-04-25T01:52:14;18.85;;;4.32;;
46507;SDS011;32223;53.654;10.014;2023-04-25T01:54:40;17.48;;;5.18;;
46507;SDS011;32223;53.654;10.014;2023-04-25T01:57:09;10.98;;;3.03;;
46507;SDS011;32223;53.654;10.014;2023-04-25T01:59:35;16.50;;;3.80;;
46507;SDS011;32223;53.654;10.014;2023-04-25T02:02:01;16.00;;;3.50;;
46507;SDS011;32223;53.654;10.014;2023-04-25T02:04:28;14.43;;;3.65;;
46507;SDS011;32223;53.654;10.014;2023-04-25T02:06:55;16.15;;;3.55;;
46507;SDS011;32223;53.654;10.014;2023-04-25T02:09:20;12.40;;;3.58;;
46507;SDS011;32223;53.654;10.014;2023-04-25T02:11:46;15.38;;;3.83;;
46507;SDS011;32223;53.654;10.014;2023-04-25T02:14:12;16.13;;;3.55;;
46507;SDS011;32223;53.654;10.014;2023-04-25T02:16:37;18.70;;;3.40;;
46507;SDS011;32223;53.654;10.014;2023-04-25T02:19:03;14.60;;;3.72;;
46507;SDS011;32223;53.654;10.014;2023-04-25T02:21:29;14.10;;;2.70;;
46507;SDS011;32223;53.654;10.014;2023-04-25T02:23:55;11.85;;;2.83;;
46507;SDS011;32223;53.654;10.014;2023-04-25T02:26:21;16.48;;;3.65;;
46507;SDS011;32223;53.654;10.014;2023-04-25T02:28:48;11.68;;;2.28;;
46507;SDS011;32223;53.654;10.014;2023-04-25T02:31:14;21.15;;;4.72;;
46507;SDS011;32223;53.654;10.014;2023-04-25T02:33:40;15.50;;;3.40;;
46507;SDS011;32223;53.654;10.014;2023-04-25T02:36:06;12.63;;;4.05;;
46507;SDS011;32223;53.654;10.014;2023-04-25T02:38:32;13.38;;;2.83;;
46507;SDS011;32223;53.654;10.014;2023-04-25T02:40:57;14.35;;;2.50;;
46507;SDS011;32223;53.654;10.014;2023-04-25T02:43:23;8.95;;;2.38;;
46507;SDS011;32223;53.654;10.014;2023-04-25T02:45:48;11.48;;;3.10;;
46507;SDS011;32223;53.654;10.014;2023-04-25T02:48:14;14.68;;;3.78;;
46507;SDS011;32223;53.654;10.014;2023-04-25T02:50:40;16.88;;;4.38;;
46507;SDS011;32223;53.654;10.014;2023-04-25T02:53:05;7.43;;;3.22;;
46507;SDS011;32223;53.654;10.014;2023-04-25T02:55:31;11.85;;;2.97;;
46507;SDS011;32223;53.654;10.014;2023-04-25T02:57:56;7.72;;;2.35;;
46507;SDS011;32223;53.654;10.014;2023-04-25T03:00:22;12.48;;;3.60;;
46507;SDS011;32223;53.654;10.014;2023-04-25T03:02:48;11.95;;;3.83;;
46507;SDS011;32223;53.654;10.014;2023-04-25T03:05:13;14.13;;;2.92;;
46507;SDS011;32223;53.654;10.014;2023-04-25T03:07:39;18.63;;;4.68;;
46507;SDS011;32223;53.654;10.014;2023-04-25T03:10:08;12.80;;;2.83;;
46507;SDS011;32223;53.654;10.014;2023-04-25T03:12:34;17.98;;;3.22;;
46507;SDS011;32223;53.654;10.014;2023-04-25T03:14:59;20.00;;;5.72;;
46507;SDS011;32223;53.654;10.014;2023-04-25T03:17:25;16.40;;;4.10;;
46507;SDS011;32223;53.654;10.014;2023-04-25T03:19:50;11.07;;;3.58;;
46507;SDS011;32223;53.654;10.014;2023-04-25T03:22:16;17.02;;;3.33;;
46507;SDS011;32223;53.654;10.014;2023-04-25T03:24:41;9.38;;;3.03;;
46507;SDS011;32223;53.654;10.014;2023-04-25T03:27:07;18.30;;;3.10;;
46507;SDS011;32223;53.654;10.014;2023-04-25T03:29:33;21.60;;;3.53;;
46507;SDS011;32223;53.654;10.014;2023-04-25T03:31:58;11.20;;;3.13;;
46507;SDS011;32223;53.654;10.014;2023-04-25T03:34:24;13.07;;;2.97;;
46507;SDS011;32223;53.654;10.014;2023-04-25T03:36:50;15.27;;;2.33;;
46507;SDS011;32223;53.654;10.014;2023-04-25T03:39:16;19.05;;;3.65;;
46507;SDS011;32223;53.654;10.014;2023-04-25T03:41:42;16.30;;;3.55;;
46507;SDS011;32223;53.654;10.014;2023-04-25T03:44:08;18.83;;;3.50;;
46507;SDS011;32223;53.654;10.014;2023-04-25T03:46:33;15.30;;;2.80;;
46507;SDS011;32223;53.654;10.014;2023-04-25T03:48:59;10.65;;;3.28;;
46507;SDS011;32223;53.654;10.014;2023-04-25T03:51:25;11.65;;;2.75;;
46507;SDS011;32223;53.654;10.014;2023-04-25T03:53:51;15.38;;;6.18;;
46507;SDS011;32223;53.654;10.014;2023-04-25T03:56:17;10.65;;;2.50;;
46507;SDS011;32223;53.654;10.014;2023-04-25T03:58:42;14.32;;;3.28;;
46507;SDS011;32223;53.654;10.014;2023-04-25T04:01:08;17.02;;;3.13;;
46507;SDS011;32223;53.654;10.014;2023-04-25T04:03:34;13.13;;;3.38;;
46507;SDS011;32223;53.654;10.014;2023-04-25T04:06:03;10.20;;;2.30;;
46507;SDS011;32223;53.654;10.014;2023-04-25T04:08:30;12.27;;;2.60;;
46507;SDS011;32223;53.654;10.014;2023-04-25T04:10:59;14.07;;;2.38;;
46507;SDS011;32223;53.654;10.014;2023-04-25T04:13:25;11.15;;;3.08;;
46507;SDS011;32223;53.654;10.014;2023-04-25T04:15:51;19.23;;;3.97;;
46507;SDS011;32223;53.654;10.014;2023-04-25T04:18:17;12.13;;;4.50;;
46507;SDS011;32223;53.654;10.014;2023-04-25T04:20:43;10.48;;;2.75;;
46507;SDS011;32223;53.654;10.014;2023-04-25T04:23:08;17.45;;;3.33;;
46507;SDS011;32223;53.654;10.014;2023-04-25T04:25:34;17.73;;;3.22;;
46507;SDS011;32223;53.654;10.014;2023-04-25T04:28:00;9.70;;;2.80;;
46507;SDS011;32223;53.654;10.014;2023-04-25T04:30:26;9.23;;;2.53;;
46507;SDS011;32223;53.654;10.014;2023-04-25T04:32:56;12.68;;;2.35;;
46507;SDS011;32223;53.654;10.014;2023-04-25T04:35:22;19.58;;;2.92;;
46507;SDS011;32223;53.654;10.014;2023-04-25T04:37:49;14.45;;;3.28;;
46507;SDS011;32223;53.654;10.014;2023-04-25T04:40:14;11.15;;;2.50;;
46507;SDS011;32223;53.654;10.014;2023-04-25T04:42:41;9.90;;;2.67;;
46507;SDS011;32223;53.654;10.014;2023-04-25T04:45:08;13.68;;;2.50;;
46507;SDS011;32223;53.654;10.014;2023-04-25T04:47:35;12.77;;;3.58;;
46507;SDS011;32223;53.654;10.014;2023-04-25T04:50:01;16.15;;;7.20;;
46507;SDS011;32223;53.654;10.014;2023-04-25T04:52:28;10.90;;;2.67;;
46507;SDS011;32223;53.654;10.014;2023-04-25T04:54:54;11.02;;;3.58;;
46507;SDS011;32223;53.654;10.014;2023-04-25T04:57:20;13.75;;;2.60;;
46507;SDS011;32223;53.654;10.014;2023-04-25T04:59:46;16.98;;;2.58;;
46507;SDS011;32223;53.654;10.014;2023-04-25T05:02:11;7.90;;;2.65;;
46507;SDS011;32223;53.654;10.014;2023-04-25T05:04:37;6.55;;;2.47;;
46507;SDS011;32223;53.654;10.014;2023-04-25T05:07:03;16.65;;;3.42;;
46507;SDS011;32223;53.654;10.014;2023-04-25T05:09:28;7.60;;;2.38;;
46507;SDS011;32223;53.654;10.014;2023-04-25T05:11:54;6.38;;;2.20;;
46507;SDS011;32223;53.654;10.014;2023-04-25T05:14:20;13.35;;;2.90;;
46507;SDS011;32223;53.654;10.014;2023-04-25T05:16:46;11.75;;;2.92;;
46507;SDS011;32223;53.654;10.014;2023-04-25T05:19:12;9.32;;;3.47;;
46507;SDS011;32223;53.654;10.014;2023-04-25T05:21:38;10.68;;;3.63;;
46507;SDS011;32223;53.654;10.014;2023-04-25T05:24:03;10.48;;;2.92;;
46507;SDS011;32223;53.654;10.014;2023-04-25T05:26:29;9.45;;;2.70;;
46507;SDS011;32223;53.654;10.014;2023-04-25T05:28:59;13.65;;;2.75;;
46507;SDS011;32223;53.654;10.014;2023-04-25T05:31:24;8.13;;;1.77;;
46507;SDS011;32223;53.654;10.014;2023-04-25T05:33:50;5.88;;;2.00;;
46507;SDS011;32223;53.654;10.014;2023-04-25T05:36:18;8.32;;;3.03;;
46507;SDS011;32223;53.654;10.014;2023-04-25T05:38:43;6.75;;;2.10;;
46507;SDS011;32223;53.654;10.014;2023-04-25T05:41:09;8.90;;;2.25;;
46507;SDS011;32223;53.654;10.014;2023-04-25T05:43:34;10.90;;;1.98;;
46507;SDS011;32223;53.654;10.014;2023-04-25T05:46:00;14.40;;;2.50;;
46507;SDS011;32223;53.654;10.014;2023-04-25T05:48:26;9.07;;;2.78;;
46507;SDS011;32223;53.654;10.014;2023-04-25T05:50:52;6.78;;;2.00;;
46507;SDS011;32223;53.654;10.014;2023-04-25T05:53:18;6.95;;;1.50;;
46507;SDS011;32223;53.654;10.014;2023-04-25T05:55:44;11.32;;;3.47;;
46507;SDS011;32223;53.654;10.014;2023-04-25T05:58:10;12.43;;;2.65;;
46507;SDS011;32223;53.654;10.014;2023-04-25T06:00:35;7.47;;;1.95;;
46507;SDS011;32223;53.654;10.014;2023-04-25T06:03:01;13.13;;;2.40;;
46507;SDS011;32223;53.654;10.014;2023-04-25T06:05:27;14.50;;;5.95;;
46507;SDS011;32223;53.654;10.014;2023-04-25T06:07:52;18.42;;;5.30;;
46507;SDS011;32223;53.654;10.014;2023-04-25T06:10:18;8.10;;;2.20;;
46507;SDS011;32223;53.654;10.014;2023-04-25T06:12:44;15.50;;;2.90;;
46507;SDS011;32223;53.654;10.014;2023-04-25T06:15:10;12.38;;;2.88;;
46507;SDS011;32223;53.654;10.014;2023-04-25T06:17:35;7.55;;;1.90;;
46507;SDS011;32223;53.654;10.014;2023-04-25T06:20:01;14.90;;;3.08;;
46507;SDS011;32223;53.654;10.014;2023-04-25T06:22:28;16.17;;;3.22;;
46507;SDS011;32223;53.654;10.014;2023-04-25T06:24:54;15.27;;;3.35;;
46507;SDS011;32223;53.654;10.014;2023-04-25T06:27:22;12.07;;;3.15;;
46507;SDS011;32223;53.654;10.014;2023-04-25T06:29:47;8.38;;;2.45;;
46507;SDS011;32223;53.654;10.014;2023-04-25T06:32:13;12.15;;;2.22;;
46507;SDS011;32223;53.654;10.014;2023-04-25T06:34:39;11.73;;;2.97;;
46507;SDS011;32223;53.654;10.014;2023-04-25T06:37:04;7.93;;;2.30;;
46507;SDS011;32223;53.654;10.014;2023-04-25T06:39:30;9.38;;;2.13;;
46507;SDS011;32223;53.654;10.014;2023-04-25T06:41:56;10.93;;;2.72;;
46507;SDS011;32223;53.654;10.014;2023-04-25T06:44:21;14.23;;;2.85;;
46507;SDS011;32223;53.654;10.014;2023-04-25T06:46:49;7.13;;;2.20;;
46507;SDS011;32223;53.654;10.014;2023-04-25T06:49:14;13.30;;;2.97;;
46507;SDS011;32223;53.654;10.014;2023-04-25T06:51:40;8.80;;;3.03;;
46507;SDS011;32223;53.654;10.014;2023-04-25T06:54:06;12.60;;;2.80;;
46507;SDS011;32223;53.654;10.014;2023-04-25T06:56:31;7.50;;;2.03;;
46507;SDS011;32223;53.654;10.014;2023-04-25T06:58:57;11.77;;;3.22;;
46507;SDS011;32223;53.654;10.014;2023-04-25T07:01:23;8.40;;;2.42;;
46507;SDS011;32223;53.654;10.014;2023-04-25T07:03:49;11.93;;;2.55;;
46507;SDS011;32223;53.654;10.014;2023-04-25T07:06:15;6.30;;;1.98;;
46507;SDS011;32223;53.654;10.014;2023-04-25T07:08:40;9.32;;;2.03;;
46507;SDS011;32223;53.654;10.014;2023-04-25T07:11:06;12.90;;;3.85;;
46507;SDS011;32223;53.654;10.014;2023-04-25T07:13:32;7.80;;;2.08;;
46507;SDS011;32223;53.654;10.014;2023-04-25T07:15:57;12.32;;;2.95;;
46507;SDS011;32223;53.654;10.014;2023-04-25T07:18:23;11.98;;;2.20;;
46507;SDS011;32223;53.654;10.014;2023-04-25T07:20:49;9.32;;;2.13;;
46507;SDS011;32223;53.654;10.014;2023-04-25T07:23:15;8.73;;;2.05;;
46507;SDS011;32223;53.654;10.014;2023-04-25T07:25:40;8.70;;;2.78;;
46507;SDS011;32223;53.654;10.014;2023-04-25T07:28:06;8.68;;;1.85;;
46507;SDS011;32223;53.654;10.014;2023-04-25T07:30:32;11.95;;;1.98;;
46507;SDS011;32223;53.654;10.014;2023-04-25T07:32:59;9.55;;;2.58;;
46507;SDS011;32223;53.654;10.014;2023-04-25T07:35:25;6.88;;;2.13;;
46507;SDS011;32223;53.654;10.014;2023-04-25T07:37:50;8.05;;;2.05;;
46507;SDS011;32223;53.654;10.014;2023-04-25T07:40:16;8.02;;;1.48;;
46507;SDS011;32223;53.654;10.014;2023-04-25T07:42:42;9.45;;;1.55;;
46507;SDS011;32223;53.654;10.014;2023-04-25T07:45:07;9.63;;;2.13;;
46507;SDS011;32223;53.654;10.014;2023-04-25T07:47:34;5.97;;;2.17;;
46507;SDS011;32223;53.654;10.014;2023-04-25T07:50:00;8.00;;;2.05;;
46507;SDS011;32223;53.654;10.014;2023-04-25T07:52:26;7.15;;;2.20;;
46507;SDS011;32223;53.654;10.014;2023-04-25T07:54:51;10.88;;;4.13;;
46507;SDS011;32223;53.654;10.014;2023-04-25T07:57:17;9.85;;;1.90;;
46507;SDS011;32223;53.654;10.014;2023-04-25T07:59:44;15.43;;;2.70;;
46507;SDS011;32223;53.654;10.014;2023-04-25T08:02:10;9.20;;;2.03;;
46507;SDS011;32223;53.654;10.014;2023-04-25T08:04:35;6.97;;;2.97;;
46507;SDS011;32223;53.654;10.014;2023-04-25T08:07:01;13.30;;;3.65;;
46507;SDS011;32223;53.654;10.014;2023-04-25T08:09:27;11.45;;;2.42;;
46507;SDS011;32223;53.654;10.014;2023-04-25T08:11:52;7.28;;;2.17;;
46507;SDS011;32223;53.654;10.014;2023-04-25T08:14:18;9.35;;;1.75;;
46507;SDS011;32223;53.654;10.014;2023-04-25T08:16:44;4.78;;;0.93;;
46507;SDS011;32223;53.654;10.014;2023-04-25T08:19:09;6.65;;;1.45;;
46507;SDS011;32223;53.654;10.014;2023-04-25T08:21:38;4.18;;;1.30;;
46507;SDS011;32223;53.654;10.014;2023-04-25T08:24:04;6.03;;;0.82;;
46507;SDS011;32223;53.654;10.014;2023-04-25T08:26:30;4.10;;;1.20;;
46507;SDS011;32223;53.654;10.014;2023-04-25T08:28:55;5.95;;;1.25;;
46507;SDS011;32223;53.654;10.014;2023-04-25T08:31:21;8.20;;;2.45;;
46507;SDS011;32223;53.654;10.014;2023-04-25T08:33:47;2.90;;;1.33;;
46507;SDS011;32223;53.654;10.014;2023-04-25T08:36:12;4.82;;;1.02;;
46507;SDS011;32223;53.654;10.014;2023-04-25T08:38:38;5.63;;;2.10;;
46507;SDS011;32223;53.654;10.014;2023-04-25T08:41:03;3.20;;;1.00;;
46507;SDS011;32223;53.654;10.014;2023-04-25T08:43:31;7.07;;;1.33;;
46507;SDS011;32223;53.654;10.014;2023-04-25T08:45:59;6.55;;;2.13;;
46507;SDS011;32223;53.654;10.014;2023-04-25T08:48:26;5.00;;;1.27;;
46507;SDS011;32223;53.654;10.014;2023-04-25T08:50:54;9.18;;;1.83;;
46507;SDS011;32223;53.654;10.014;2023-04-25T08:53:31;11.30;;;2.33;;
46507;SDS011;32223;53.654;10.014;2023-04-25T08:55:58;9.40;;;2.55;;
46507;SDS011;32223;53.654;10.014;2023-04-25T08:58:26;10.60;;;2.80;;
46507;SDS011;32223;53.654;10.014;2023-04-25T09:00:53;13.02;;;2.42;;
46507;SDS011;32223;53.654;10.014;2023-04-25T09:03:18;8.38;;;1.58;;
46507;SDS011;32223;53.654;10.014;2023-04-25T09:05:44;6.88;;;1.95;;
46507;SDS011;32223;53.654;10.014;2023-04-25T09:08:10;9.20;;;1.48;;
46507;SDS011;32223;53.654;10.014;2023-04-25T09:10:36;8.18;;;2.63;;
46507;SDS011;32223;53.654;10.014;2023-04-25T09:13:09;7.22;;;2.30;;
46507;SDS011;32223;53.654;10.014;2023-04-25T09:15:47;8.88;;;1.88;;
46507;SDS011;32223;53.654;10.014;2023-04-25T09:18:21;8.52;;;2.42;;
46507;SDS011;32223;53.654;10.014;2023-04-25T09:20:55;10.63;;;2.00;;
46507;SDS011;32223;53.654;10.014;2023-04-25T09:23:22;6.80;;;1.52;;
46507;SDS011;32223;53.654;10.014;2023-04-25T09:25:51;7.85;;;1.67;;
46507;SDS011;32223;53.654;10.014;2023-04-25T09:28:25;5.97;;;1.48;;
46507;SDS011;32223;53.654;10.014;2023-04-25T09:30:54;7.05;;;1.33;;
46507;SDS011;32223;53.654;10.014;2023-04-25T09:33:27;8.45;;;2.08;;
46507;SDS011;32223;53.654;10.014;2023-04-25T09:35:56;5.25;;;2.03;;
46507;SDS011;32223;53.654;10.014;2023-04-25T09:40:56;5.80;;;1.65;;
46507;SDS011;32223;53.654;10.014;2023-04-25T09:43:23;5.68;;;1.40;;
46507;SDS011;32223;53.654;10.014;2023-04-25T09:45:50;7.35;;;1.30;;
46507;SDS011;32223;53.654;10.014;2023-04-25T09:48:18;5.82;;;1.60;;
46507;SDS011;32223;53.654;10.014;2023-04-25T09:50:45;7.32;;;2.38;;
46507;SDS011;32223;53.654;10.014;2023-04-25T09:53:28;8.57;;;2.78;;
46507;SDS011;32223;53.654;10.014;2023-04-25T09:55:54;7.22;;;1.77;;
46507;SDS011;32223;53.654;10.014;2023-04-25T09:58:24;10.10;;;1.50;;
46507;SDS011;32223;53.654;10.014;2023-04-25T10:00:54;6.95;;;2.20;;
46507;SDS011;32223;53.654;10.014;2023-04-25T10:03:26;10.25;;;1.77;;
46507;SDS011;32223;53.654;10.014;2023-04-25T10:05:52;7.80;;;1.60;;
46507;SDS011;32223;53.654;10.014;2023-04-25T10:08:19;5.80;;;1.27;;
46507;SDS011;32223;53.654;10.014;2023-04-25T10:10:46;7.10;;;1.65;;
46507;SDS011;32223;53.654;10.014;2023-04-25T10:13:13;11.73;;;1.42;;
46507;SDS011;32223;53.654;10.014;2023-04-25T10:15:39;5.07;;;1.23;;
46507;SDS011;32223;53.654;10.014;2023-04-25T10:18:06;6.78;;;2.65;;
46507;SDS011;32223;53.654;10.014;2023-04-25T10:20:32;6.45;;;1.05;;
46507;SDS011;32223;53.654;10.014;2023-04-25T10:22:58;7.63;;;1.50;;
46507;SDS011;32223;53.654;10.014;2023-04-25T10:25:35;6.28;;;1.05;;
46507;SDS011;32223;53.654;10.014;2023-04-25T10:28:02;4.38;;;1.05;;
46507;SDS011;32223;53.654;10.014;2023-04-25T10:30:28;5.88;;;1.30;;
46507;SDS011;32223;53.654;10.014;2023-04-25T10:32:55;6.65;;;1.60;;
46507;SDS011;32223;53.654;10.014;2023-04-25T10:35:25;5.10;;;1.38;;
46507;SDS011;32223;53.654;10.014;2023-04-25T10:38:09;4.15;;;1.02;;
46507;SDS011;32223;53.654;10.014;2023-04-25T10:40:36;8.40;;;1.13;;
46507;SDS011;32223;53.654;10.014;2023-04-25T10:46:00;5.40;;;1.65;;
46507;SDS011;32223;53.654;10.014;2023-04-25T10:48:26;9.57;;;1.25;;
46507;SDS011;32223;53.654;10.014;2023-04-25T10:51:14;6.70;;;1.90;;
46507;SDS011;32223;53.654;10.014;2023-04-25T10:53:41;4.05;;;1.30;;
46507;SDS011;32223;53.654;10.014;2023-04-25T10:56:27;6.25;;;1.75;;
46507;SDS011;32223;53.654;10.014;2023-04-25T10:59:02;5.20;;;1.02;;
46507;SDS011;32223;53.654;10.014;2023-04-25T11:01:49;7.45;;;1.48;;
46507;SDS011;32223;53.654;10.014;2023-04-25T11:07:02;7.07;;;1.48;;
46507;SDS011;32223;53.654;10.014;2023-04-25T11:09:35;6.95;;;1.00;;
46507;SDS011;32223;53.654;10.014;2023-04-25T11:12:03;4.15;;;1.33;;
46507;SDS011;32223;53.654;10.014;2023-04-25T11:14:30;6.22;;;2.28;;
46507;SDS011;32223;53.654;10.014;2023-04-25T11:16:56;3.67;;;0.75;;
46507;SDS011;32223;53.654;10.014;2023-04-25T11:19:23;3.90;;;0.98;;
46507;SDS011;32223;53.654;10.014;2023-04-25T11:21:49;4.63;;;1.20;;
46507;SDS011;32223;53.654;10.014;2023-04-25T11:24:16;3.15;;;1.05;;
46507;SDS011;32223;53.654;10.014;2023-04-25T11:26:42;7.13;;;1.20;;
46507;SDS011;32223;53.654;10.014;2023-04-25T11:29:08;5.68;;;1.48;;
46507;SDS011;32223;53.654;10.014;2023-04-25T11:31:34;5.18;;;2.00;;
46507;SDS011;32223;53.654;10.014;2023-04-25T11:34:00;10.27;;;1.75;;
46507;SDS011;32223;53.654;10.014;2023-04-25T11:36:26;8.63;;;1.88;;
46507;SDS011;32223;53.654;10.014;2023-04-25T11:38:52;5.60;;;0.73;;
46507;SDS011;32223;53.654;10.014;2023-04-25T11:41:18;6.43;;;1.77;;
46507;SDS011;32223;53.654;10.014;2023-04-25T11:43:45;4.70;;;1.52;;
46507;SDS011;32223;53.654;10.014;2023-04-25T11:46:10;3.53;;;1.25;;
46507;SDS011;32223;53.654;10.014;2023-04-25T11:48:37;4.45;;;1.20;;
46507;SDS011;32223;53.654;10.014;2023-04-25T11:51:04;7.60;;;1.98;;
46507;SDS011;32223;53.654;10.014;2023-04-25T11:53:29;2.85;;;1.38;;
46507;SDS011;32223;53.654;10.014;2023-04-25T11:55:55;4.45;;;1.10;;
46507;SDS011;32223;53.654;10.014;2023-04-25T11:58:21;3.38;;;0.90;;
46507;SDS011;32223;53.654;10.014;2023-04-25T12:00:46;4.10;;;1.00;;
46507;SDS011;32223;53.654;10.014;2023-04-25T12:03:12;3.85;;;1.15;;
46507;SDS011;32223;53.654;10.014;2023-04-25T12:05:38;4.80;;;1.08;;
46507;SDS011;32223;53.654;10.014;2023-04-25T12:10:37;3.47;;;1.02;;
46507;SDS011;32223;53.654;10.014;2023-04-25T12:15:46;7.38;;;1.77;;
46507;SDS011;32223;53.654;10.014;2023-04-25T12:18:12;3.47;;;0.98;;
46507;SDS011;32223;53.654;10.014;2023-04-25T12:20:38;2.97;;;0.90;;
46507;SDS011;32223;53.654;10.014;2023-04-25T12:23:05;5.93;;;1.42;;
46507;SDS011;32223;53.654;10.014;2023-04-25T12:25:40;7.22;;;1.00;;
46507;SDS011;32223;53.654;10.014;2023-04-25T12:28:17;5.03;;;1.30;;
46507;SDS011;32223;53.654;10.014;2023-04-25T12:33:20;3.70;;;0.93;;
46507;SDS011;32223;53.654;10.014;2023-04-25T12:35:46;6.32;;;1.50;;
46507;SDS011;32223;53.654;10.014;2023-04-25T12:38:20;7.05;;;1.60;;
46507;SDS011;32223;53.654;10.014;2023-04-25T12:40:50;7.43;;;1.42;;
46507;SDS011;32223;53.654;10.014;2023-04-25T12:43:16;5.05;;;1.10;;
46507;SDS011;32223;53.654;10.014;2023-04-25T12:45:42;7.72;;;2.03;;
46507;SDS011;32223;53.654;10.014;2023-04-25T12:48:08;4.82;;;1.15;;
46507;SDS011;32223;53.654;10.014;2023-04-25T12:50:34;11.38;;;2.20;;
46507;SDS011;32223;53.654;10.014;2023-04-25T12:53:00;4.93;;;1.58;;
46507;SDS011;32223;53.654;10.014;2023-04-25T12:55:26;5.45;;;0.75;;
46507;SDS011;32223;53.654;10.014;2023-04-25T12:57:51;4.20;;;0.80;;
46507;SDS011;32223;53.654;10.014;2023-04-25T13:00:17;4.20;;;1.08;;
46507;SDS011;32223;53.654;10.014;2023-04-25T13:02:44;2.85;;;1.00;;
46507;SDS011;32223;53.654;10.014;2023-04-25T13:05:11;7.30;;;1.17;;
46507;SDS011;32223;53.654;10.014;2023-04-25T13:07:37;3.22;;;1.02;;
46507;SDS011;32223;53.654;10.014;2023-04-25T13:10:03;4.57;;;0.90;;
46507;SDS011;32223;53.654;10.014;2023-04-25T13:12:30;7.35;;;1.50;;
46507;SDS011;32223;53.654;10.014;2023-04-25T13:14:56;6.10;;;1.17;;
46507;SDS011;32223;53.654;10.014;2023-04-25T13:17:22;2.75;;;1.00;;
46507;SDS011;32223;53.654;10.014;2023-04-25T13:19:47;4.72;;;1.38;;
46507;SDS011;32223;53.654;10.014;2023-04-25T13:22:13;6.07;;;1.10;;
46507;SDS011;32223;53.654;10.014;2023-04-25T13:24:40;12.57;;;1.50;;
46507;SDS011;32223;53.654;10.014;2023-04-25T13:27:05;6.28;;;1.42;;
46507;SDS011;32223;53.654;10.014;2023-04-25T13:29:31;5.72;;;1.45;;
46507;SDS011;32223;53.654;10.014;2023-04-25T13:31:59;5.40;;;1.48;;
46507;SDS011;32223;53.654;10.014;2023-04-25T13:34:25;8.40;;;2.22;;
46507;SDS011;32223;53.654;10.014;2023-04-25T13:36:51;6.13;;;1.73;;
46507;SDS011;32223;53.654;10.014;2023-04-25T13:39:17;4.75;;;1.50;;
46507;SDS011;32223;53.654;10.014;2023-04-25T13:41:42;6.47;;;2.03;;
46507;SDS011;32223;53.654;10.014;2023-04-25T13:44:08;6.40;;;1.63;;
46507;SDS011;32223;53.654;10.014;2023-04-25T13:46:34;7.18;;;2.08;;
46507;SDS011;32223;53.654;10.014;2023-04-25T13:49:00;3.38;;;0.80;;
46507;SDS011;32223;53.654;10.014;2023-04-25T13:51:26;3.70;;;0.82;;
46507;SDS011;32223;53.654;10.014;2023-04-25T13:53:51;5.72;;;1.52;;
46507;SDS011;32223;53.654;10.014;2023-04-25T13:56:17;4.50;;;1.33;;
46507;SDS011;32223;53.654;10.014;2023-04-25T13:58:44;7.55;;;1.23;;
46507;SDS011;32223;53.654;10.014;2023-04-25T14:01:10;6.60;;;1.30;;
46507;SDS011;32223;53.654;10.014;2023-04-25T14:03:35;5.22;;;1.33;;
46507;SDS011;32223;53.654;10.014;2023-04-25T14:06:01;7.00;;;1.83;;
46507;SDS011;32223;53.654;10.014;2023-04-25T14:08:27;4.15;;;1.08;;
46507;SDS011;32223;53.654;10.014;2023-04-25T14:10:53;4.78;;;0.95;;
46507;SDS011;32223;53.654;10.014;2023-04-25T14:13:19;6.95;;;0.90;;
46507;SDS011;32223;53.654;10.014;2023-04-25T14:15:45;3.20;;;1.02;;
46507;SDS011;32223;53.654;10.014;2023-04-25T14:18:11;3.58;;;0.98;;
46507;SDS011;32223;53.654;10.014;2023-04-25T14:20:36;4.22;;;1.15;;
46507;SDS011;32223;53.654;10.014;2023-04-25T14:23:02;5.05;;;1.42;;
46507;SDS011;32223;53.654;10.014;2023-04-25T14:25:29;3.83;;;0.73;;
46507;SDS011;32223;53.654;10.014;2023-04-25T14:27:55;4.72;;;1.27;;
46507;SDS011;32223;53.654;10.014;2023-04-25T14:30:21;6.25;;;1.25;;
46507;SDS011;32223;53.654;10.014;2023-04-25T14:32:48;4.78;;;1.35;;
46507;SDS011;32223;53.654;10.014;2023-04-25T14:35:14;2.85;;;0.70;;
46507;SDS011;32223;53.654;10.014;2023-04-25T14:37:40;7.72;;;1.92;;
46507;SDS011;32223;53.654;10.014;2023-04-25T14:40:07;5.20;;;1.33;;
46507;SDS011;32223;53.654;10.014;2023-04-25T14:42:37;5.88;;;1.63;;
46507;SDS011;32223;53.654;10.014;2023-04-25T14:45:04;5.05;;;1.17;;